PDT,Max TemperatureF,Mean TemperatureF,Min TemperatureF,Max Dew PointF,MeanDew PointF,Min DewpointF,Max Humidity, Mean Humidity, Min Humidity, Max Sea Level PressureIn, Mean Sea Level PressureIn, Min Sea Level PressureIn, Max VisibilityMiles, Mean VisibilityMiles, Min VisibilityMiles, Max Wind SpeedMPH, Mean Wind SpeedMPH, Max Gust SpeedMPH,PrecipitationIn, CloudCover, Events, WindDirDegrees
2013-10-1,93,79,65,42,38,29,42,28,13,29.90,29.83,29.78,10,10,10,10,5,17,0.00,0,,77
2013-10-2,92,80,67,53,45,42,45,32,18,29.89,29.81,29.74,10,10,10,10,3,14,0.00,0,,7
2013-10-3,87,75,63,52,48,42,63,42,21,29.83,29.76,29.69,10,10,10,20,6,25,0.00,0,,303
2013-10-4,86,79,72,34,9,2,21,13,5,30.15,30.03,29.86,10,10,7,25,13,32,0.00,1,,337
2013-10-5,89,80,71,18,12,2,13,9,4,30.24,30.16,30.10,10,10,10,21,10,24,0.00,0,,312
2013-10-6,93,79,65,28,13,0,15,9,3,30.14,30.06,29.96,10,10,10,12,4,16,0.00,0,,310
2013-10-7,92,78,63,33,17,5,15,10,4,29.99,29.90,29.82,10,10,10,10,6,14,0.00,1,,347
2013-10-8,90,75,59,46,32,16,39,23,7,29.83,29.75,29.65,10,10,10,20,4,25,0.00,0,,306
2013-10-9,72,67,61,49,44,40,52,43,33,29.77,29.70,29.64,10,10,10,23,8,29,T,4,Rain,342
2013-10-10,74,62,49,48,42,35,89,58,27,29.98,29.91,29.78,10,10,10,9,3,12,0.00,0,,266
2013-10-11,82,68,54,46,41,37,72,47,21,30.04,29.97,29.90,10,10,10,10,4,15,0.00,0,,344
2013-10-12,86,73,59,46,38,30,49,32,14,29.94,29.89,29.82,10,10,10,13,5,15,0.00,0,,346
2013-10-13,83,70,57,47,42,33,62,40,17,29.97,29.88,29.83,10,10,10,14,3,16,0.00,0,,278
2013-10-14,86,72,58,46,31,22,57,34,10,30.05,29.99,29.93,10,10,7,12,5,15,0.00,0,,300
2013-10-15,88,75,61,29,24,19,29,19,8,30.03,29.96,29.89,10,10,10,12,4,16,0.00,0,,316
2013-10-16,85,73,60,31,20,11,27,17,6,30.13,30.05,29.98,10,10,10,10,4,16,0.00,0,,288
2013-10-17,87,73,59,36,23,14,23,15,7,30.04,29.97,29.88,10,10,10,13,5,15,0.00,0,,353
2013-10-18,92,76,59,36,23,10,40,23,5,30.00,29.96,29.91,10,10,10,13,5,16,0.00,0,,296
2013-10-19,94,78,62,31,18,1,17,10,3,30.03,29.97,29.91,10,10,10,10,6,13,0.00,0,,349
2013-10-20,94,77,59,37,22,6,34,19,4,29.94,29.88,29.80,10,10,10,10,5,13,0.00,0,,267
2013-10-21,90,75,60,35,28,20,36,23,9,29.96,29.91,29.86,10,10,10,12,5,16,0.00,0,,15
2013-10-22,93,77,61,33,23,14,25,16,6,29.99,29.93,29.87,10,10,2,12,6,18,0.00,0,,357
2013-10-23,93,78,63,50,30,14,24,15,6,29.88,29.84,29.79,10,9,6,10,6,14,0.00,1,,326
2013-10-24,89,72,55,51,46,34,77,46,15,29.96,29.89,29.84,10,8,5,12,2,15,0.00,0,,323
2013-10-25,90,74,57,50,39,26,69,40,10,30.03,29.99,29.96,10,9,7,13,4,15,0.00,0,,40
2013-10-26,95,78,61,41,29,21,31,19,7,30.06,30.00,29.95,10,10,9,12,5,14,0.00,0,,325
2013-10-27,92,80,67,41,31,23,25,17,9,29.94,29.79,29.66,10,10,10,16,6,22,0.00,0,,360
2013-10-28,76,71,65,46,40,33,48,35,21,29.85,29.72,29.64,10,9,4,25,12,33,0.00,2,,75
2013-10-29,72,63,54,42,38,33,64,45,25,29.95,29.90,29.86,10,10,10,17,3,22,0.00,1,,319
2013-10-30,76,63,50,42,34,27,63,40,17,30.06,30.01,29.95,10,10,10,8,2,22,0.00,0,,275
2013-10-31,81,66,51,33,27,17,46,28,9,30.14,30.08,30.02,10,10,10,12,5,13,0.00,0,,310